Time;durP1;ratioP1;P1;durP2;ratioP2;P2;SDS_P1;SDS_P2;PMS_P1;PMS_P2;Temp;Humidity;BMP_temperature;BMP_pressure;BME280_temperature;BME280_humidity;BME280_pressure;Samples;Min_cycle;Max_cycle;Signal;HPM_P1;HPM_P2
2023/04/15 00:01:06;;;;;;;9.07;3.45;;;10.40;58.80;;;;;;9176136;19;20018;-64
2023/04/15 00:04:10;;;;;;;5.88;3.30;;;10.30;58.80;;;;;;9176562;19;20495;-64
2023/04/15 00:07:18;;;;;;;9.40;3.80;;;10.30;58.90;;;;;;9174002;19;20012;-64
2023/04/15 00:10:23;;;;;;;7.95;4.05;;;10.30;59.00;;;;;;9175772;19;20018;-63
2023/04/15 00:13:29;;;;;;;10.70;4.25;;;10.30;59.00;;;;;;9172736;19;20483;-64
2023/04/15 00:16:32;;;;;;;11.05;3.60;;;10.30;59.10;;;;;;9175838;19;20048;-64
2023/04/15 00:19:39;;;;;;;12.50;3.97;;;10.20;59.10;;;;;;9175480;19;20033;-64
2023/04/15 00:22:46;;;;;;;8.23;4.07;;;10.10;59.20;;;;;;9175931;19;20014;-63
2023/04/15 00:25:52;;;;;;;7.15;4.20;;;10.10;59.30;;;;;;9173403;19;20011;-64
2023/04/15 00:28:56;;;;;;;8.38;4.40;;;10.10;59.30;;;;;;9175552;19;20011;-64
2023/04/15 00:32:02;;;;;;;7.68;4.57;;;10.10;59.40;;;;;;9173788;19;20007;-64
2023/04/15 00:35:06;;;;;;;;;;;10.00;59.50;;;;;;9176158;19;20010;-64
2023/04/15 00:38:14;;;;;;;7.55;3.65;;;10.00;59.50;;;;;;9175012;19;19918;-63
2023/04/15 00:41:20;;;;;;;7.60;4.20;;;10.00;59.40;;;;;;9174852;19;20018;-63
2023/04/15 00:44:26;;;;;;;8.98;3.78;;;9.90;59.50;;;;;;9169498;19;20022;-63
2023/04/15 00:47:31;;;;;;;7.57;3.78;;;9.90;59.70;;;;;;9174766;19;20019;-63
2023/04/15 00:50:37;;;;;;;11.05;4.60;;;9.80;59.70;;;;;;9174340;19;20557;-64
2023/04/15 00:53:46;;;;;;;7.78;3.78;;;9.80;59.90;;;;;;9173792;19;20014;-63
2023/04/15 00:56:52;;;;;;;9.48;4.40;;;9.80;59.90;;;;;;9173871;19;20011;-64
2023/04/15 00:59:57;;;;;;;12.48;3.47;;;9.80;60.00;;;;;;9174113;19;20468;-64
2023/04/15 01:03:03;;;;;;;7.25;3.67;;;9.70;60.00;;;;;;9172567;19;20006;-63
2023/04/15 01:06:07;;;;;;;5.45;3.50;;;9.70;60.10;;;;;;9172357;19;20403;-63
2023/04/15 01:09:15;;;;;;;8.07;4.35;;;9.70;60.30;;;;;;9174125;19;20376;-63
2023/04/15 01:12:21;;;;;;;7.40;3.80;;;9.60;60.30;;;;;;9172434;19;20022;-63
2023/04/15 01:15:27;;;;;;;6.75;4.55;;;9.60;60.40;;;;;;9173569;19;20475;-63
2023/04/15 01:18:31;;;;;;;;;;;9.60;60.50;;;;;;9173894;19;20019;-63
2023/04/15 01:21:38;;;;;;;8.68;3.88;;;9.60;60.40;;;;;;9171566;19;19930;-63
2023/04/15 01:24:48;;;;;;;8.30;4.13;;;9.60;60.40;;;;;;9171193;19;20106;-63
2023/04/15 01:27:57;;;;;;;5.28;3.72;;;9.50;60.60;;;;;;9170464;19;20518;-63
2023/04/15 01:31:08;;;;;;;5.75;3.63;;;9.50;60.70;;;;;;9173269;19;20015;-63
2023/04/15 01:34:17;;;;;;;7.60;4.05;;;9.50;61.50;;;;;;9171469;19;20018;-63
2023/04/15 01:37:40;;;;;;;8.25;4.38;;;9.50;60.80;;;;;;9173344;19;20022;-63
2023/04/15 01:40:46;;;;;;;7.25;3.63;;;9.50;60.90;;;;;;9174184;19;20007;-63
2023/04/15 01:43:53;;;;;;;7.25;4.90;;;9.40;60.90;;;;;;9181183;19;20632;-63
2023/04/15 01:47:00;;;;;;;7.32;4.53;;;9.40;61.10;;;;;;9178284;19;20010;-62
2023/04/15 01:50:07;;;;;;;7.78;4.20;;;9.40;61.20;;;;;;9181022;19;20019;-63
2023/04/15 01:53:14;;;;;;;9.27;4.55;;;9.40;61.20;;;;;;9180643;19;20026;-63
2023/04/15 01:56:19;;;;;;;11.00;4.30;;;9.40;61.30;;;;;;9180451;19;20035;-63
2023/04/15 01:59:30;;;;;;;6.40;4.30;;;9.40;61.30;;;;;;9177423;19;20018;-63
2023/04/15 02:02:36;;;;;;;7.78;4.75;;;9.30;61.40;;;;;;9178694;19;20011;-63
2023/04/15 02:05:44;;;;;;;7.53;4.07;;;9.30;61.40;;;;;;9179229;19;20015;-63
2023/04/15 02:08:49;;;;;;;9.82;4.50;;;9.30;61.50;;;;;;9179154;19;20027;-63
2023/04/15 02:11:57;;;;;;;8.25;4.80;;;9.30;61.60;;;;;;9178962;19;20030;-63
2023/04/15 02:15:04;;;;;;;6.07;4.22;;;9.20;61.60;;;;;;9179837;19;20010;-63
2023/04/15 02:18:11;;;;;;;6.47;4.07;;;9.20;61.70;;;;;;9179104;19;20573;-63
2023/04/15 02:21:17;;;;;;;6.57;4.00;;;9.20;61.70;;;;;;9180044;19;20459;-63
2023/04/15 02:24:25;;;;;;;7.22;4.68;;;9.20;61.70;;;;;;9179702;19;20025;-63
2023/04/15 02:27:30;;;;;;;8.60;4.68;;;9.20;61.80;;;;;;9177100;19;20019;-64
2023/04/15 02:30:39;;;;;;;9.27;5.20;;;9.10;61.80;;;;;;9178610;19;20022;-63
2023/04/15 02:33:45;;;;;;;6.47;4.45;;;9.10;62.00;;;;;;9179566;19;20019;-62
2023/04/15 02:36:56;;;;;;;6.63;4.57;;;9.10;61.90;;;;;;9179734;19;20022;-63
2023/04/15 02:40:01;;;;;;;8.63;5.13;;;9.10;62.00;;;;;;9179730;19;20035;-63
2023/04/15 02:43:08;;;;;;;10.07;4.95;;;9.00;62.00;;;;;;9177314;19;20038;-63
2023/04/15 02:46:15;;;;;;;11.45;5.80;;;9.00;62.20;;;;;;9170846;19;20027;-63
2023/04/15 02:49:22;;;;;;;11.20;4.85;;;9.00;62.20;;;;;;9179515;19;20018;-63
2023/04/15 02:52:28;;;;;;;7.57;4.85;;;8.90;62.30;;;;;;9174118;19;20023;-63
2023/04/15 02:55:35;;;;;;;11.10;5.43;;;8.90;62.30;;;;;;9175108;19;20007;-63
2023/04/15 02:58:40;;;;;;;9.45;5.47;;;8.80;62.40;;;;;;9178464;19;20021;-63
2023/04/15 03:01:50;;;;;;;10.05;5.60;;;8.80;62.50;;;;;;9177647;19;20471;-63
2023/04/15 03:04:56;;;;;;;13.40;5.80;;;8.80;62.50;;;;;;9176613;19;20364;-63
2023/04/15 03:08:03;;;;;;;10.68;5.10;;;8.80;62.60;;;;;;9176438;19;20462;-63
2023/04/15 03:11:08;;;;;;;10.02;6.13;;;8.80;62.60;;;;;;9176532;19;20019;-63
2023/04/15 03:14:16;;;;;;;13.32;5.40;;;8.70;62.60;;;;;;9173300;19;20364;-63
2023/04/15 03:17:26;;;;;;;13.60;6.00;;;8.70;62.70;;;;;;9175945;19;20025;-63
2023/04/15 03:20:34;;;;;;;12.40;6.13;;;8.70;62.80;;;;;;9176275;19;20086;-63
2023/04/15 03:23:40;;;;;;;8.70;5.97;;;8.70;62.80;;;;;;9176032;19;20094;-63
2023/04/15 03:26:47;;;;;;;8.85;5.60;;;8.70;62.80;;;;;;9174864;19;20018;-63
2023/04/15 03:29:55;;;;;;;12.50;6.45;;;8.70;62.90;;;;;;9176817;19;20010;-63
2023/04/15 03:33:07;;;;;;;12.25;6.57;;;8.60;62.90;;;;;;9176454;19;20018;-64
2023/04/15 03:36:13;;;;;;;15.57;5.70;;;8.60;63.00;;;;;;9175927;19;20058;-63
2023/04/15 03:39:20;;;;;;;9.82;5.85;;;8.60;63.10;;;;;;9177687;19;20021;-63
2023/04/15 03:42:25;;;;;;;13.80;6.53;;;8.60;63.10;;;;;;9177212;19;20015;-63
2023/04/15 03:45:33;;;;;;;11.63;6.82;;;8.60;63.20;;;;;;9171128;19;20034;-63
2023/04/15 03:48:40;;;;;;;13.85;7.00;;;8.60;63.20;;;;;;9177124;19;20467;-64
2023/04/15 03:51:47;;;;;;;10.07;5.85;;;8.60;63.30;;;;;;9175307;19;20436;-63
2023/04/15 03:54:52;;;;;;;12.30;6.38;;;8.50;63.30;;;;;;9176828;19;20484;-63
2023/04/15 03:57:59;;;;;;;12.30;6.35;;;8.50;63.40;;;;;;9176393;19;20013;-63
2023/04/15 04:01:04;;;;;;;15.15;6.88;;;8.50;63.40;;;;;;9176377;19;20015;-63
2023/04/15 04:04:13;;;;;;;11.27;6.60;;;8.50;63.40;;;;;;9175955;19;20103;-63
2023/04/15 04:07:19;;;;;;;9.73;6.22;;;8.50;64.20;;;;;;9174198;19;20042;-63
2023/04/15 04:10:27;;;;;;;16.05;6.10;;;8.50;63.60;;;;;;9177052;19;20037;-63
2023/04/15 04:13:32;;;;;;;11.45;6.53;;;8.50;63.60;;;;;;9173390;19;20028;-63
2023/04/15 04:16:39;;;;;;;11.00;7.05;;;8.40;63.50;;;;;;9175566;19;20010;-63
2023/04/15 04:19:47;;;;;;;12.20;6.57;;;8.40;63.60;;;;;;9176209;19;20089;-63
2023/04/15 04:22:54;;;;;;;9.00;5.90;;;8.40;63.60;;;;;;9176097;19;20033;-64
2023/04/15 04:25:59;;;;;;;11.68;6.88;;;8.40;63.70;;;;;;9174855;19;20022;-63
2023/04/15 04:29:07;;;;;;;11.23;6.53;;;8.40;63.70;;;;;;9175502;19;20013;-63
2023/04/15 04:32:12;;;;;;;11.90;6.88;;;8.40;63.70;;;;;;9176178;19;20019;-63
2023/04/15 04:35:21;;;;;;;11.20;7.05;;;8.40;63.80;;;;;;9175346;19;20018;-64
2023/04/15 04:38:26;;;;;;;11.80;7.18;;;8.40;63.90;;;;;;9175584;19;20035;-63
2023/04/15 04:41:34;;;;;;;10.68;7.10;;;8.40;63.80;;;;;;9175788;19;20111;-63
2023/04/15 04:44:39;;;;;;;12.20;7.28;;;8.30;63.80;;;;;;9169211;19;20018;-63
2023/04/15 04:47:47;;;;;;;12.23;7.07;;;8.30;63.90;;;;;;9169978;19;20014;-63
2023/04/15 04:50:54;;;;;;;10.80;6.60;;;8.30;63.90;;;;;;9174816;19;20783;-63
2023/04/15 04:54:01;;;;;;;12.13;7.03;;;8.30;64.00;;;;;;9174357;19;20022;-63
2023/04/15 04:57:08;;;;;;;14.40;6.65;;;8.30;64.10;;;;;;9168456;19;20010;-64
2023/04/15 05:00:16;;;;;;;12.07;7.03;;;8.30;64.20;;;;;;9165632;19;20010;-61
2023/04/15 05:03:21;;;;;;;13.05;7.70;;;8.20;64.10;;;;;;9160684;19;20010;-61
2023/04/15 05:06:31;;;;;;;16.35;11.07;;;8.20;64.20;;;;;;9159582;19;20025;-61
2023/04/15 05:09:37;;;;;;;16.73;11.80;;;8.20;64.30;;;;;;9165195;19;20015;-61
2023/04/15 05:12:44;;;;;;;17.75;10.63;;;8.20;64.30;;;;;;9160083;19;20010;-61
2023/04/15 05:15:49;;;;;;;13.93;9.13;;;8.20;64.40;;;;;;9175543;19;20021;-61
2023/04/15 05:18:56;;;;;;;12.73;8.82;;;8.20;64.50;;;;;;9181882;19;20479;-61
2023/04/15 05:22:03;;;;;;;13.95;8.13;;;8.20;64.50;;;;;;9182455;19;20011;-61
2023/04/15 05:25:11;;;;;;;17.13;9.05;;;8.20;64.60;;;;;;9181780;19;20467;-61
2023/04/15 05:28:16;;;;;;;12.88;7.93;;;8.20;64.60;;;;;;9178890;19;20035;-61
2023/04/15 05:31:23;;;;;;;13.40;8.77;;;8.20;64.60;;;;;;9181538;19;20388;-61
2023/04/15 05:34:28;;;;;;;14.75;8.60;;;8.20;64.70;;;;;;9181821;19;20018;-61
2023/04/15 05:37:38;;;;;;;21.17;9.02;;;8.20;64.70;;;;;;9181580;19;20384;-61
2023/04/15 05:40:43;;;;;;;17.50;8.30;;;8.20;64.70;;;;;;9181438;19;20014;-61
2023/04/15 05:43:52;;;;;;;14.63;8.75;;;8.10;64.80;;;;;;9178487;19;20015;-61
2023/04/15 05:46:57;;;;;;;12.88;8.27;;;8.20;64.80;;;;;;9179808;19;20015;-61
2023/04/15 05:50:06;;;;;;;13.63;8.63;;;8.10;64.80;;;;;;9181336;19;20015;-61
2023/04/15 05:53:13;;;;;;;14.63;9.10;;;8.20;64.90;;;;;;9179899;19;20015;-61
2023/04/15 05:56:21;;;;;;;16.08;7.82;;;8.20;64.90;;;;;;9181591;19;20360;-61
2023/04/15 05:59:27;;;;;;;22.25;9.68;;;8.20;64.90;;;;;;9180759;19;20023;-61
2023/04/15 06:02:34;;;;;;;19.17;9.68;;;8.20;65.00;;;;;;9180647;19;20006;-61
2023/04/15 06:05:40;;;;;;;15.85;8.93;;;8.20;65.00;;;;;;9180737;19;20010;-61
2023/04/15 06:08:49;;;;;;;20.40;10.20;;;8.20;65.10;;;;;;9180297;19;20021;-61
2023/04/15 06:11:55;;;;;;;19.40;10.32;;;8.20;65.10;;;;;;9179008;19;20036;-62
2023/04/15 06:15:02;;;;;;;17.42;10.15;;;8.20;65.20;;;;;;9179645;19;20025;-61
2023/04/15 06:18:07;;;;;;;17.38;10.13;;;8.20;65.20;;;;;;9180307;19;20010;-61
2023/04/15 06:21:15;;;;;;;20.13;10.07;;;8.20;65.30;;;;;;9180272;19;20014;-61
2023/04/15 06:24:22;;;;;;;16.92;10.15;;;8.30;65.40;;;;;;9180056;19;20586;-62
2023/04/15 06:27:29;;;;;;;29.20;12.75;;;8.30;65.50;;;;;;9177203;19;20010;-61
2023/04/15 06:30:35;;;;;;;21.92;12.05;;;8.30;65.50;;;;;;9179148;19;20031;-61
2023/04/15 06:33:43;;;;;;;22.13;10.82;;;8.40;65.60;;;;;;9179205;19;20007;-61
2023/04/15 06:36:48;;;;;;;18.00;10.50;;;8.40;65.70;;;;;;9179876;19;20285;-61
2023/04/15 06:39:57;;;;;;;17.23;9.77;;;8.50;66.40;;;;;;9179187;19;20033;-61
2023/04/15 06:43:03;;;;;;;21.63;9.95;;;8.50;65.90;;;;;;9179033;19;20022;-62
2023/04/15 06:46:11;;;;;;;20.38;10.05;;;8.60;65.90;;;;;;9173570;19;20022;-61
2023/04/15 06:49:16;;;;;;;15.27;9.23;;;8.60;65.90;;;;;;9178932;19;20049;-61
2023/04/15 06:52:23;;;;;;;16.33;9.02;;;8.70;66.00;;;;;;9179331;19;20029;-61
2023/04/15 06:55:31;;;;;;;16.45;9.68;;;8.80;66.10;;;;;;9179223;19;20015;-61
2023/04/15 06:58:38;;;;;;;17.27;8.90;;;8.80;66.20;;;;;;9178242;19;20815;-61
2023/04/15 07:01:43;;;;;;;15.15;8.88;;;8.90;66.20;;;;;;9178440;19;20024;-62
2023/04/15 07:04:50;;;;;;;18.13;9.45;;;9.00;66.20;;;;;;9178863;19;20014;-62
2023/04/15 07:07:56;;;;;;;18.45;9.50;;;9.10;66.40;;;;;;9175957;19;20526;-61
2023/04/15 07:11:05;;;;;;;15.40;8.85;;;9.10;66.30;;;;;;9178213;19;20017;-61
2023/04/15 07:14:10;;;;;;;16.83;8.25;;;9.20;66.50;;;;;;9174857;19;20111;-61
2023/04/15 07:17:17;;;;;;;15.40;8.68;;;9.20;66.50;;;;;;9177294;19;20032;-61
2023/04/15 07:20:22;;;;;;;16.95;8.98;;;9.30;66.50;;;;;;9177987;19;20487;-61
2023/04/15 07:23:30;;;;;;;15.85;9.63;;;9.30;66.60;;;;;;9178304;19;20011;-61
2023/04/15 07:26:37;;;;;;;15.85;9.43;;;9.40;66.70;;;;;;9177210;19;20017;-62
2023/04/15 07:29:44;;;;;;;20.98;10.20;;;9.50;66.80;;;;;;9178052;19;20007;-61
2023/04/15 07:32:49;;;;;;;17.55;9.93;;;9.50;66.80;;;;;;9178109;19;20360;-62
2023/04/15 07:35:57;;;;;;;16.30;9.48;;;9.60;66.80;;;;;;9177550;19;20014;-61
2023/04/15 07:39:03;;;;;;;17.88;9.07;;;9.60;66.80;;;;;;9172779;19;20023;-61
2023/04/15 07:42:12;;;;;;;17.15;9.07;;;9.70;66.90;;;;;;9177378;19;20356;-62
2023/04/15 07:45:17;;;;;;;16.90;9.48;;;9.70;66.90;;;;;;9171227;19;20014;-62
2023/04/15 07:48:25;;;;;;;15.05;9.50;;;9.70;66.90;;;;;;9173616;19;20007;-62
2023/04/15 07:51:31;;;;;;;18.58;9.13;;;9.80;67.00;;;;;;9167827;19;20413;-59
2023/04/15 07:54:41;;;;;;;16.17;8.55;;;9.80;67.00;;;;;;9175930;19;20033;-59
2023/04/15 07:57:49;;;;;;;14.80;8.80;;;9.80;67.00;;;;;;9177148;19;20381;-58
2023/04/15 08:00:56;;;;;;;17.65;8.77;;;9.80;67.10;;;;;;9176471;19;20018;-59
2023/04/15 08:04:01;;;;;;;15.75;9.18;;;9.90;67.10;;;;;;9177403;19;20073;-59
2023/04/15 08:07:09;;;;;;;14.15;7.50;;;9.90;67.10;;;;;;9174953;19;20015;-59
2023/04/15 08:10:15;;;;;;;13.25;7.00;;;10.00;67.10;;;;;;9175813;19;20007;-59
2023/04/15 08:13:24;;;;;;;17.15;7.65;;;10.00;67.20;;;;;;9172839;19;20022;-59
2023/04/15 08:16:29;;;;;;;14.82;6.72;;;10.10;67.20;;;;;;9174778;19;20022;-59
2023/04/15 08:19:36;;;;;;;14.50;7.65;;;10.10;67.20;;;;;;9174649;19;20634;-59
2023/04/15 08:22:41;;;;;;;13.82;7.45;;;10.20;67.30;;;;;;9175120;19;20361;-59
2023/04/15 08:25:49;;;;;;;16.45;7.47;;;10.20;67.20;;;;;;9175846;19;20025;-59
2023/04/15 08:28:56;;;;;;;10.25;6.50;;;10.30;67.30;;;;;;9171756;19;20090;-59
2023/04/15 08:32:04;;;;;;;10.85;5.85;;;10.40;67.30;;;;;;9174290;19;20033;-59
2023/04/15 08:35:10;;;;;;;8.85;6.00;;;10.40;67.30;;;;;;9170898;19;20015;-59
2023/04/15 08:38:17;;;;;;;12.02;5.78;;;10.50;67.30;;;;;;9175558;19;20015;-59
2023/04/15 08:41:25;;;;;;;11.98;6.18;;;10.50;67.30;;;;;;9174860;19;20504;-60
2023/04/15 08:44:37;;;;;;;9.27;5.60;;;10.60;67.30;;;;;;9169718;19;20006;-59
2023/04/15 08:47:45;;;;;;;8.60;5.90;;;10.60;67.30;;;;;;9172846;19;20033;-58
2023/04/15 08:50:53;;;;;;;14.88;6.28;;;10.70;67.30;;;;;;9176709;19;20021;-59
2023/04/15 08:53:58;;;;;;;8.90;5.70;;;10.80;67.30;;;;;;9181456;19;20015;-58
2023/04/15 08:57:06;;;;;;;13.43;6.13;;;10.80;67.30;;;;;;9181232;19;20049;-59
2023/04/15 09:00:14;;;;;;;7.82;4.90;;;10.90;67.30;;;;;;9181399;19;20014;-59
2023/04/15 09:03:23;;;;;;;11.80;5.18;;;11.00;67.30;;;;;;9180880;19;20021;-60
2023/04/15 09:06:28;;;;;;;8.73;5.18;;;11.00;67.20;;;;;;9180866;19;20078;-59
2023/04/15 09:09:39;;;;;;;10.50;5.65;;;11.10;67.30;;;;;;9182582;19;20011;-59
2023/04/15 09:12:44;;;;;;;8.57;4.82;;;11.10;67.20;;;;;;9181266;19;20014;-59
2023/04/15 09:15:54;;;;;;;9.30;4.43;;;11.20;67.20;;;;;;9181887;19;20022;-59
2023/04/15 09:18:59;;;;;;;6.47;4.15;;;11.30;67.20;;;;;;9182053;19;20041;-59
2023/04/15 09:22:07;;;;;;;7.63;5.00;;;11.30;67.20;;;;;;9182109;19;20011;-59
2023/04/15 09:25:28;;;;;;;11.00;4.80;;;11.40;67.20;;;;;;9182114;19;20475;-59
2023/04/15 09:28:43;;;;;;;7.90;4.90;;;11.40;67.30;;;;;;9179770;19;20015;-59
2023/04/15 09:31:50;;;;;;;11.52;4.75;;;11.40;67.10;;;;;;9182077;19;20353;-57
2023/04/15 09:34:57;;;;;;;8.15;4.25;;;11.50;67.20;;;;;;9181955;19;20357;-59
2023/04/15 09:38:06;;;;;;;7.22;4.25;;;11.50;67.10;;;;;;9181652;19;20018;-59
2023/04/15 09:41:19;;;;;;;8.95;3.80;;;11.50;67.20;;;;;;9181340;19;20026;-59
2023/04/15 09:44:25;;;;;;;14.25;3.70;;;11.50;67.10;;;;;;9176051;19;20010;-59
2023/04/15 09:47:34;;;;;;;7.75;3.38;;;11.60;67.10;;;;;;9180252;19;20018;-59
2023/04/15 09:50:43;;;;;;;6.55;3.25;;;11.60;67.20;;;;;;9181053;19;20038;-59
2023/04/15 09:53:57;;;;;;;5.93;3.30;;;11.60;67.10;;;;;;9181373;19;20353;-59
2023/04/15 09:57:07;;;;;;;7.70;3.08;;;11.60;67.10;;;;;;9180699;19;20361;-59
2023/04/15 10:00:15;;;;;;;8.25;3.10;;;11.60;67.10;;;;;;9180283;19;20007;-59
2023/04/15 10:03:24;;;;;;;4.68;2.58;;;11.70;67.10;;;;;;9179742;19;20011;-59
2023/04/15 10:06:32;;;;;;;4.78;2.83;;;11.70;67.10;;;;;;9180365;19;20030;-59
2023/04/15 10:09:39;;;;;;;6.30;2.60;;;11.70;67.00;;;;;;9180609;19;20074;-59
2023/04/15 10:12:47;;;;;;;8.00;3.08;;;11.70;67.00;;;;;;9179374;19;20379;-59
2023/04/15 10:15:56;;;;;;;4.97;2.75;;;11.70;67.00;;;;;;9180188;19;20013;-59
2023/04/15 10:19:07;;;;;;;6.43;2.90;;;11.70;67.10;;;;;;9180199;19;20014;-60
2023/04/15 10:22:15;;;;;;;8.57;3.25;;;11.70;67.10;;;;;;9179919;19;20428;-59
2023/04/15 10:25:23;;;;;;;9.57;3.28;;;11.70;67.00;;;;;;9178940;19;20010;-59
2023/04/15 10:28:28;;;;;;;4.80;2.30;;;11.70;67.00;;;;;;9177805;19;20356;-59
2023/04/15 10:31:37;;;;;;;5.45;2.40;;;11.80;67.00;;;;;;9179796;19;20017;-59
2023/04/15 10:34:46;;;;;;;10.05;2.95;;;11.80;67.00;;;;;;9179695;19;20085;-59
2023/04/15 10:37:53;;;;;;;7.78;2.97;;;11.80;67.00;;;;;;9179735;19;20352;-59
2023/04/15 10:41:13;;;;;;;6.57;3.40;;;11.80;67.00;;;;;;9178663;19;20467;-59
2023/04/15 10:44:21;;;;;;;6.22;3.03;;;11.90;67.10;;;;;;9174867;19;20014;-59
2023/04/15 10:47:27;;;;;;;6.00;2.70;;;11.90;67.00;;;;;;9178625;19;20038;-59
2023/04/15 10:50:38;;;;;;;7.85;3.33;;;11.90;67.00;;;;;;9179553;19;20495;-59
2023/04/15 10:53:44;;;;;;;5.35;2.30;;;11.90;67.00;;;;;;9179539;19;20018;-60
2023/04/15 10:56:53;;;;;;;7.45;3.05;;;12.00;66.90;;;;;;9179228;19;20702;-59
2023/04/15 11:00:06;;;;;;;4.85;3.20;;;12.00;66.90;;;;;;9177245;19;20010;-59
2023/04/15 11:03:14;;;;;;;5.28;2.65;;;12.00;66.90;;;;;;9178394;19;20040;-59
2023/04/15 11:06:21;;;;;;;4.38;2.47;;;12.00;66.90;;;;;;9178679;19;20033;-59
2023/04/15 11:09:33;;;;;;;7.60;2.92;;;12.00;66.90;;;;;;9175950;19;20022;-59
2023/04/15 11:12:38;;;;;;;7.03;2.50;;;12.00;66.90;;;;;;9175608;19;20037;-59
2023/04/15 11:15:47;;;;;;;6.20;2.53;;;12.10;66.90;;;;;;9176802;19;20019;-59
2023/04/15 11:18:56;;;;;;;6.63;3.22;;;12.10;66.80;;;;;;9178219;19;20356;-59
2023/04/15 11:22:09;;;;;;;4.05;2.10;;;12.10;66.90;;;;;;9169590;19;20364;-59
2023/04/15 11:25:23;;;;;;;5.80;3.00;;;12.10;66.90;;;;;;9171073;19;20037;-59
2023/04/15 11:28:31;;;;;;;5.18;2.30;;;12.10;66.90;;;;;;9168863;19;20015;-59
2023/04/15 11:31:37;;;;;;;4.55;2.17;;;12.10;66.80;;;;;;9170428;19;20015;-59
2023/04/15 11:34:47;;;;;;;4.03;1.83;;;12.10;66.80;;;;;;9170516;19;20022;-59
2023/04/15 11:37:55;;;;;;;4.65;1.90;;;12.10;66.80;;;;;;9171003;19;20018;-60
2023/04/15 11:41:02;;;;;;;5.72;2.22;;;12.10;66.90;;;;;;9170831;19;20356;-59
2023/04/15 11:44:17;;;;;;;11.57;2.80;;;12.20;66.90;;;;;;9166138;19;20043;-60
2023/04/15 11:47:24;;;;;;;4.28;2.10;;;12.20;66.90;;;;;;9168685;19;20019;-58
2023/04/15 11:50:30;;;;;;;16.40;3.10;;;12.30;66.90;;;;;;9170729;19;20022;-59
2023/04/15 11:53:43;;;;;;;5.82;2.33;;;12.30;66.90;;;;;;9169983;19;20029;-59
2023/04/15 11:56:53;;;;;;;6.45;2.40;;;12.30;66.90;;;;;;9170903;19;20016;-58
2023/04/15 11:59:59;;;;;;;4.60;2.20;;;12.30;66.90;;;;;;9170008;19;20034;-58
2023/04/15 12:03:17;;;;;;;;;;;12.30;66.80;;;;;;9170448;19;20468;-58
2023/04/15 12:06:26;;;;;;;4.10;1.70;;;12.30;66.70;;;;;;9170032;19;20022;-58
2023/04/15 12:09:38;;;;;;;5.97;2.33;;;12.30;66.70;;;;;;9165224;19;20014;-59
2023/04/15 12:12:44;;;;;;;3.60;1.80;;;12.30;66.80;;;;;;9167887;19;20574;-58
2023/04/15 12:15:50;;;;;;;;;;;12.30;66.90;;;;;;9170738;19;20032;-59
2023/04/15 12:18:58;;;;;;;4.22;1.75;;;12.30;66.80;;;;;;9164415;19;19931;-58
2023/04/15 12:22:04;;;;;;;5.13;2.00;;;12.30;66.80;;;;;;9168331;19;20036;-59
2023/04/15 12:25:12;;;;;;;4.40;2.20;;;12.20;66.80;;;;;;9168283;19;20530;-59
2023/04/15 12:28:18;;;;;;;5.32;1.80;;;12.20;66.90;;;;;;9167841;19;20021;-59
2023/04/15 12:31:24;;;;;;;2.75;2.40;;;12.20;66.80;;;;;;9169289;19;20026;-59
2023/04/15 12:34:30;;;;;;;4.03;1.90;;;12.20;66.80;;;;;;9167815;19;20082;-59
2023/04/15 12:37:36;;;;;;;5.20;1.67;;;12.20;67.00;;;;;;9166572;19;20014;-59
2023/04/15 12:40:42;;;;;;;6.95;2.35;;;12.20;67.00;;;;;;9168044;19;20479;-59
2023/04/15 12:43:50;;;;;;;3.67;2.03;;;12.20;67.00;;;;;;9168117;19;20026;-59
2023/04/15 12:46:54;;;;;;;8.35;2.28;;;12.20;67.00;;;;;;9167703;19;20007;-59
2023/04/15 12:50:00;;;;;;;4.00;2.08;;;12.20;67.00;;;;;;9164052;19;20030;-60
2023/04/15 12:53:08;;;;;;;10.20;2.10;;;12.20;67.00;;;;;;9167716;19;20022;-59
2023/04/15 12:56:16;;;;;;;3.05;1.55;;;12.20;67.00;;;;;;9167964;19;20019;-66
2023/04/15 12:59:20;;;;;;;4.03;1.73;;;12.20;67.10;;;;;;9166199;19;20034;-59
2023/04/15 13:02:27;;;;;;;2.17;1.52;;;12.20;67.00;;;;;;9167076;19;20014;-59
2023/04/15 13:05:31;;;;;;;5.60;1.88;;;12.20;67.00;;;;;;9167723;19;20022;-59
2023/04/15 13:08:38;;;;;;;5.70;1.80;;;12.20;67.00;;;;;;9165919;19;20022;-59
2023/04/15 13:11:53;;;;;;;9.07;2.10;;;12.20;67.00;;;;;;9165631;19;20025;-60
2023/04/15 13:14:59;;;;;;;6.63;1.92;;;12.20;67.00;;;;;;9165097;19;20014;-59
2023/04/15 13:18:03;;;;;;;;;;;12.20;67.10;;;;;;9168689;19;20042;-59
2023/04/15 13:21:09;;;;;;;8.15;2.30;;;12.20;67.00;;;;;;9165672;19;19930;-58
2023/04/15 13:24:13;;;;;;;4.38;2.00;;;12.20;67.00;;;;;;9166266;19;20022;-59
2023/04/15 13:27:22;;;;;;;6.50;2.28;;;12.20;67.10;;;;;;9166381;19;20022;-58
2023/04/15 13:30:26;;;;;;;8.40;1.92;;;12.20;67.10;;;;;;9166140;19;20026;-59
2023/04/15 13:33:32;;;;;;;10.40;2.65;;;12.20;67.20;;;;;;9172077;19;20030;-59
2023/04/15 13:36:36;;;;;;;3.83;2.10;;;12.20;67.20;;;;;;9167113;19;20691;-59
2023/04/15 13:39:42;;;;;;;4.40;1.77;;;12.20;67.30;;;;;;9174112;19;20015;-58
2023/04/15 13:42:48;;;;;;;;;;;12.10;67.20;;;;;;9173222;19;20014;-57
2023/04/15 13:45:54;;;;;;;9.05;3.03;;;12.10;67.20;;;;;;9169370;19;19937;-59
2023/04/15 13:48:58;;;;;;;4.75;2.20;;;12.10;67.20;;;;;;9178403;19;20040;-58
2023/04/15 13:52:04;;;;;;;8.40;2.00;;;12.10;67.30;;;;;;9180489;19;20014;-59
2023/04/15 13:55:09;;;;;;;9.80;2.33;;;12.10;67.40;;;;;;9180933;19;20014;-59
2023/04/15 13:58:29;;;;;;;8.43;2.22;;;12.10;67.40;;;;;;9180635;19;20025;-59
2023/04/15 14:01:35;;;;;;;6.93;1.88;;;12.10;67.50;;;;;;9180053;19;20371;-59
2023/04/15 14:04:41;;;;;;;7.57;2.33;;;12.10;67.50;;;;;;9179785;19;20018;-59
2023/04/15 14:07:45;;;;;;;;;;;12.10;67.50;;;;;;9172458;19;20483;-58
2023/04/15 14:10:51;;;;;;;6.68;1.60;;;12.10;67.50;;;;;;9171497;19;19934;-58
2023/04/15 14:13:57;;;;;;;;;;;12.10;67.50;;;;;;9172243;19;20010;-58
2023/04/15 14:17:04;;;;;;;12.27;2.90;;;12.10;67.50;;;;;;9173284;19;19927;-59
2023/04/15 14:20:09;;;;;;;6.13;1.88;;;12.10;67.60;;;;;;9170715;19;20506;-58
2023/04/15 14:23:15;;;;;;;5.18;3.00;;;12.00;67.70;;;;;;9169868;19;20010;-58
2023/04/15 14:26:19;;;;;;;;;;;12.00;67.70;;;;;;9170009;19;20029;-59
2023/04/15 14:29:27;;;;;;;6.25;2.00;;;12.00;67.70;;;;;;9167795;19;20705;-58
2023/04/15 14:32:31;;;;;;;7.35;2.72;;;12.00;67.70;;;;;;9169244;19;20039;-58
2023/04/15 14:35:37;;;;;;;3.92;1.90;;;12.00;67.80;;;;;;9169818;19;20017;-58
2023/04/15 14:38:41;;;;;;;7.32;2.13;;;11.90;67.90;;;;;;9169967;19;20022;-59
2023/04/15 14:41:47;;;;;;;8.20;2.42;;;11.90;68.00;;;;;;9169686;19;20010;-59
2023/04/15 14:44:53;;;;;;;;;;;11.90;68.10;;;;;;9164538;19;20102;-59
2023/04/15 14:48:00;;;;;;;;;;;11.90;67.90;;;;;;9169684;19;20292;-58
2023/04/15 14:51:04;;;;;;;;;;;11.90;67.80;;;;;;9170300;19;19978;-58
2023/04/15 14:54:10;;;;;;;;;;;11.90;67.80;;;;;;9169425;19;19907;-58
2023/04/15 14:57:14;;;;;;;;;;;11.90;67.70;;;;;;9169709;19;19922;-58
2023/04/15 15:00:21;;;;;;;;;;;11.90;67.70;;;;;;9169622;19;20501;-58
2023/04/15 15:03:25;;;;;;;;;;;11.90;67.60;;;;;;9169951;19;19923;-59
2023/04/15 15:06:31;;;;;;;;;;;11.80;67.60;;;;;;9168073;19;19926;-58
2023/04/15 15:09:35;;;;;;;;;;;11.80;67.50;;;;;;9167641;19;20337;-58
2023/04/15 15:12:41;;;;;;;;;;;11.80;67.50;;;;;;9168372;19;19930;-58
2023/04/15 15:15:48;;;;;;;;;;;11.80;67.50;;;;;;9169246;19;19919;-58
2023/04/15 15:18:53;;;;;;;;;;;11.70;67.50;;;;;;9168858;19;20547;-59
2023/04/15 15:21:57;;;;;;;;;;;11.70;67.50;;;;;;9169213;19;20013;-57
2023/04/15 15:25:03;;;;;;;;;;;11.70;67.50;;;;;;9169327;19;19917;-60
2023/04/15 15:28:07;;;;;;;;;;;11.70;67.60;;;;;;9167855;19;19918;-59
2023/04/15 15:31:15;;;;;;;;;;;11.60;67.60;;;;;;9166342;19;19922;-59
2023/04/15 15:34:18;;;;;;;;;;;11.60;67.60;;;;;;9169156;19;19975;-59
2023/04/15 15:37:24;;;;;;;;;;;11.60;67.60;;;;;;9169060;19;20356;-59
2023/04/15 15:40:28;;;;;;;;;;;11.50;67.50;;;;;;9169048;19;19926;-58
2023/04/15 15:43:34;;;;;;;;;;;11.50;67.60;;;;;;9167649;19;19915;-59
2023/04/15 15:46:40;;;;;;;;;;;11.50;67.60;;;;;;9162548;19;20519;-58
2023/04/15 15:49:48;;;;;;;;;;;11.50;67.60;;;;;;9167066;19;19955;-58
2023/04/15 15:52:51;;;;;;;;;;;11.50;67.60;;;;;;9167807;19;19919;-59
2023/04/15 15:55:57;;;;;;;;;;;11.40;67.50;;;;;;9163186;19;19918;-59
2023/04/15 15:59:01;;;;;;;;;;;11.40;67.50;;;;;;9165900;19;19962;-60
2023/04/15 16:02:09;;;;;;;;;;;11.40;67.50;;;;;;9168380;19;19918;-59
2023/04/15 16:05:13;;;;;;;;;;;11.40;67.60;;;;;;9163351;19;19929;-60
2023/04/15 16:08:19;;;;;;;;;;;11.40;67.60;;;;;;9165323;19;20340;-60
2023/04/15 16:11:23;;;;;;;;;;;11.30;67.50;;;;;;9167416;19;19954;-60
2023/04/15 16:14:29;;;;;;;;;;;11.30;67.60;;;;;;9167678;19;19923;-59
2023/04/15 16:17:35;;;;;;;;;;;11.30;67.70;;;;;;9166986;19;20033;-60
2023/04/15 16:20:40;;;;;;;;;;;11.30;67.60;;;;;;9166410;19;19922;-59
2023/04/15 16:23:44;;;;;;;;;;;11.20;67.60;;;;;;9167476;19;19933;-60
2023/04/15 16:26:50;;;;;;;;;;;11.20;67.70;;;;;;9167606;19;19950;-60